sensor_id;sensor_type;location;lat;lon;timestamp;pressure;altitude;pressure_sealevel;temperature;humidity
4858;BME280;58975;51.978;8.472;2023-03-21T00:01:36;100432.00;;;7.69;100.00
4858;BME280;58975;51.978;8.472;2023-03-21T00:06:32;100431.06;;;7.70;100.00
4858;BME280;58975;51.978;8.472;2023-03-21T00:11:29;100416.00;;;7.71;100.00
4858;BME280;58975;51.978;8.472;2023-03-21T00:16:25;100418.88;;;7.80;100.00
4858;BME280;58975;51.978;8.472;2023-03-21T00:21:25;100403.72;;;7.82;100.00
4858;BME280;58975;51.978;8.472;2023-03-21T00:26:48;100406.91;;;7.87;100.00
4858;BME280;58975;51.978;8.472;2023-03-21T00:31:44;100402.13;;;7.92;100.00
4858;BME280;58975;51.978;8.472;2023-03-21T00:36:41;100401.94;;;7.95;100.00
4858;BME280;58975;51.978;8.472;2023-03-21T00:41:38;100409.75;;;7.97;100.00
4858;BME280;58975;51.978;8.472;2023-03-21T00:46:38;100402.56;;;7.86;100.00
4858;BME280;58975;51.978;8.472;2023-03-21T00:51:49;100398.72;;;7.90;100.00
4858;BME280;58975;51.978;8.472;2023-03-21T00:56:46;100393.75;;;7.73;100.00
4858;BME280;58975;51.978;8.472;2023-03-21T01:01:43;100384.41;;;7.68;100.00
4858;BME280;58975;51.978;8.472;2023-03-21T01:06:42;100380.78;;;7.69;100.00
4858;BME280;58975;51.978;8.472;2023-03-21T01:11:39;100378.38;;;7.78;100.00
4858;BME280;58975;51.978;8.472;2023-03-21T01:16:37;100374.78;;;7.79;100.00
4858;BME280;58975;51.978;8.472;2023-03-21T01:21:34;100372.22;;;7.90;100.00
4858;BME280;58975;51.978;8.472;2023-03-21T01:26:30;100370.97;;;7.83;100.00
4858;BME280;58975;51.978;8.472;2023-03-21T01:31:27;100370.75;;;7.86;100.00
4858;BME280;58975;51.978;8.472;2023-03-21T01:36:25;100369.56;;;7.90;100.00
4858;BME280;58975;51.978;8.472;2023-03-21T01:41:30;100369.97;;;7.84;100.00
4858;BME280;58975;51.978;8.472;2023-03-21T01:46:49;100368.63;;;7.91;100.00
4858;BME280;58975;51.978;8.472;2023-03-21T01:52:08;100361.63;;;7.90;100.00
4858;BME280;58975;51.978;8.472;2023-03-21T01:57:15;100363.50;;;7.88;100.00
4858;BME280;58975;51.978;8.472;2023-03-21T02:02:18;100354.28;;;7.81;100.00
4858;BME280;58975;51.978;8.472;2023-03-21T02:07:21;100353.34;;;7.82;100.00
4858;BME280;58975;51.978;8.472;2023-03-21T02:12:21;100341.34;;;7.89;100.00
4858;BME280;58975;51.978;8.472;2023-03-21T02:27:58;100331.50;;;7.91;100.00
4858;BME280;58975;51.978;8.472;2023-03-21T02:38:17;100314.75;;;7.91;100.00
4858;BME280;58975;51.978;8.472;2023-03-21T02:43:26;100323.41;;;7.93;100.00
4858;BME280;58975;51.978;8.472;2023-03-21T02:48:31;100319.19;;;7.78;100.00
4858;BME280;58975;51.978;8.472;2023-03-21T02:53:49;100314.34;;;7.72;100.00
4858;BME280;58975;51.978;8.472;2023-03-21T02:59:09;100318.13;;;7.80;100.00
4858;BME280;58975;51.978;8.472;2023-03-21T03:04:22;100324.72;;;7.75;100.00
4858;BME280;58975;51.978;8.472;2023-03-21T03:25:13;100303.34;;;8.01;100.00
4858;BME280;58975;51.978;8.472;2023-03-21T03:30:36;100304.75;;;8.07;100.00
4858;BME280;58975;51.978;8.472;2023-03-21T03:35:44;100304.38;;;8.12;100.00
4858;BME280;58975;51.978;8.472;2023-03-21T03:41:00;100300.69;;;8.14;100.00
4858;BME280;58975;51.978;8.472;2023-03-21T03:46:05;100301.31;;;8.18;100.00
4858;BME280;58975;51.978;8.472;2023-03-21T03:51:09;100291.66;;;8.29;100.00
4858;BME280;58975;51.978;8.472;2023-03-21T03:56:08;100288.03;;;8.30;100.00
4858;BME280;58975;51.978;8.472;2023-03-21T04:01:06;100284.94;;;8.24;100.00
4858;BME280;58975;51.978;8.472;2023-03-21T04:06:03;100276.69;;;8.16;100.00
4858;BME280;58975;51.978;8.472;2023-03-21T04:11:00;100279.72;;;7.98;100.00
4858;BME280;58975;51.978;8.472;2023-03-21T04:15:57;100278.47;;;7.91;100.00
4858;BME280;58975;51.978;8.472;2023-03-21T04:20:54;100270.94;;;7.85;100.00
4858;BME280;58975;51.978;8.472;2023-03-21T04:25:51;100275.81;;;7.91;100.00
4858;BME280;58975;51.978;8.472;2023-03-21T04:30:52;100270.50;;;7.91;100.00
4858;BME280;58975;51.978;8.472;2023-03-21T04:36:02;100262.34;;;7.94;100.00
4858;BME280;58975;51.978;8.472;2023-03-21T04:40:59;100263.81;;;7.98;100.00
4858;BME280;58975;51.978;8.472;2023-03-21T04:45:55;100259.97;;;8.02;100.00
4858;BME280;58975;51.978;8.472;2023-03-21T04:50:52;100252.59;;;8.19;100.00
4858;BME280;58975;51.978;8.472;2023-03-21T04:55:48;100253.31;;;8.21;100.00
4858;BME280;58975;51.978;8.472;2023-03-21T05:00:50;100249.97;;;8.19;100.00
4858;BME280;58975;51.978;8.472;2023-03-21T05:05:48;100245.38;;;8.21;100.00
4858;BME280;58975;51.978;8.472;2023-03-21T05:10:45;100247.00;;;8.11;100.00
4858;BME280;58975;51.978;8.472;2023-03-21T05:15:41;100250.81;;;8.19;100.00
4858;BME280;58975;51.978;8.472;2023-03-21T05:20:39;100245.69;;;8.16;100.00
4858;BME280;58975;51.978;8.472;2023-03-21T05:25:39;100239.78;;;8.13;100.00
4858;BME280;58975;51.978;8.472;2023-03-21T05:30:36;100245.09;;;8.13;100.00
4858;BME280;58975;51.978;8.472;2023-03-21T05:35:32;100246.13;;;8.23;100.00
4858;BME280;58975;51.978;8.472;2023-03-21T05:40:29;100236.97;;;8.27;100.00
4858;BME280;58975;51.978;8.472;2023-03-21T05:45:26;100240.91;;;8.21;100.00
4858;BME280;58975;51.978;8.472;2023-03-21T05:50:22;100247.06;;;8.22;100.00
4858;BME280;58975;51.978;8.472;2023-03-21T05:55:19;100250.75;;;8.32;100.00
4858;BME280;58975;51.978;8.472;2023-03-21T06:00:16;100244.50;;;8.33;100.00
4858;BME280;58975;51.978;8.472;2023-03-21T06:05:13;100234.50;;;8.36;100.00
4858;BME280;58975;51.978;8.472;2023-03-21T06:10:10;100241.91;;;8.44;100.00
4858;BME280;58975;51.978;8.472;2023-03-21T06:15:07;100244.72;;;8.53;100.00
4858;BME280;58975;51.978;8.472;2023-03-21T06:20:05;100238.34;;;8.56;100.00
4858;BME280;58975;51.978;8.472;2023-03-21T06:25:04;100234.72;;;8.57;100.00
4858;BME280;58975;51.978;8.472;2023-03-21T06:30:03;100236.44;;;8.58;100.00
4858;BME280;58975;51.978;8.472;2023-03-21T06:35:01;100239.38;;;8.66;100.00
4858;BME280;58975;51.978;8.472;2023-03-21T06:39:57;100235.28;;;8.73;100.00
4858;BME280;58975;51.978;8.472;2023-03-21T06:44:53;100248.31;;;8.76;100.00
4858;BME280;58975;51.978;8.472;2023-03-21T06:49:50;100242.19;;;8.87;100.00
4858;BME280;58975;51.978;8.472;2023-03-21T06:54:47;100243.19;;;8.97;100.00
4858;BME280;58975;51.978;8.472;2023-03-21T06:59:43;100247.41;;;8.99;100.00
4858;BME280;58975;51.978;8.472;2023-03-21T07:04:40;100247.78;;;9.06;100.00
4858;BME280;58975;51.978;8.472;2023-03-21T07:09:36;100241.41;;;9.09;100.00
4858;BME280;58975;51.978;8.472;2023-03-21T07:14:33;100250.09;;;9.22;100.00
4858;BME280;58975;51.978;8.472;2023-03-21T07:19:30;100244.94;;;9.20;100.00
4858;BME280;58975;51.978;8.472;2023-03-21T07:24:26;100248.91;;;9.26;100.00
4858;BME280;58975;51.978;8.472;2023-03-21T07:29:23;100249.75;;;9.37;100.00
4858;BME280;58975;51.978;8.472;2023-03-21T07:34:20;100246.88;;;9.40;100.00
4858;BME280;58975;51.978;8.472;2023-03-21T07:39:17;100245.94;;;9.53;100.00
4858;BME280;58975;51.978;8.472;2023-03-21T07:44:15;100238.31;;;9.48;100.00
4858;BME280;58975;51.978;8.472;2023-03-21T07:49:12;100249.66;;;9.39;100.00
4858;BME280;58975;51.978;8.472;2023-03-21T07:54:08;100246.13;;;9.27;100.00
4858;BME280;58975;51.978;8.472;2023-03-21T07:59:05;100250.59;;;9.27;100.00
4858;BME280;58975;51.978;8.472;2023-03-21T08:04:02;100261.47;;;9.24;100.00
4858;BME280;58975;51.978;8.472;2023-03-21T08:08:59;100260.03;;;9.20;100.00
4858;BME280;58975;51.978;8.472;2023-03-21T08:13:59;100262.84;;;8.94;100.00
4858;BME280;58975;51.978;8.472;2023-03-21T08:18:56;100266.44;;;8.82;100.00
4858;BME280;58975;51.978;8.472;2023-03-21T08:23:53;100262.88;;;8.71;100.00
4858;BME280;58975;51.978;8.472;2023-03-21T08:28:49;100265.34;;;8.74;100.00
4858;BME280;58975;51.978;8.472;2023-03-21T08:33:45;100267.16;;;8.84;100.00
4858;BME280;58975;51.978;8.472;2023-03-21T08:38:42;100267.06;;;8.86;100.00
4858;BME280;58975;51.978;8.472;2023-03-21T08:43:41;100269.81;;;8.84;100.00
4858;BME280;58975;51.978;8.472;2023-03-21T08:48:37;100281.91;;;8.88;100.00
4858;BME280;58975;51.978;8.472;2023-03-21T08:53:34;100273.66;;;8.80;100.00
4858;BME280;58975;51.978;8.472;2023-03-21T08:58:31;100277.28;;;8.79;100.00
4858;BME280;58975;51.978;8.472;2023-03-21T09:03:27;100277.00;;;8.71;100.00
4858;BME280;58975;51.978;8.472;2023-03-21T09:08:25;100278.59;;;8.74;100.00
4858;BME280;58975;51.978;8.472;2023-03-21T09:13:22;100276.78;;;8.74;100.00
4858;BME280;58975;51.978;8.472;2023-03-21T09:18:19;100273.28;;;8.74;100.00
4858;BME280;58975;51.978;8.472;2023-03-21T09:23:33;100275.72;;;8.77;100.00
4858;BME280;58975;51.978;8.472;2023-03-21T09:28:31;100281.97;;;8.76;100.00
4858;BME280;58975;51.978;8.472;2023-03-21T09:33:28;100282.00;;;8.87;100.00
4858;BME280;58975;51.978;8.472;2023-03-21T09:38:25;100287.75;;;9.05;100.00
4858;BME280;58975;51.978;8.472;2023-03-21T09:43:48;100276.78;;;9.09;100.00
4858;BME280;58975;51.978;8.472;2023-03-21T09:48:59;100270.41;;;9.23;100.00
4858;BME280;58975;51.978;8.472;2023-03-21T09:53:59;100265.56;;;9.06;100.00
4858;BME280;58975;51.978;8.472;2023-03-21T09:58:58;100272.44;;;9.08;100.00
4858;BME280;58975;51.978;8.472;2023-03-21T10:03:58;100267.97;;;9.09;100.00
4858;BME280;58975;51.978;8.472;2023-03-21T10:09:02;100277.25;;;9.14;100.00
4858;BME280;58975;51.978;8.472;2023-03-21T10:14:35;100269.44;;;9.24;100.00
4858;BME280;58975;51.978;8.472;2023-03-21T10:19:33;100266.56;;;9.38;100.00
4858;BME280;58975;51.978;8.472;2023-03-21T10:24:32;100249.56;;;9.52;100.00
4858;BME280;58975;51.978;8.472;2023-03-21T10:29:42;100248.09;;;9.59;100.00
4858;BME280;58975;51.978;8.472;2023-03-21T10:34:42;100249.19;;;9.67;100.00
4858;BME280;58975;51.978;8.472;2023-03-21T10:39:51;100244.13;;;9.75;100.00
4858;BME280;58975;51.978;8.472;2023-03-21T10:44:50;100238.28;;;9.81;100.00
4858;BME280;58975;51.978;8.472;2023-03-21T10:49:47;100232.22;;;10.02;100.00
4858;BME280;58975;51.978;8.472;2023-03-21T10:55:15;100237.88;;;10.08;100.00
4858;BME280;58975;51.978;8.472;2023-03-21T11:00:20;100232.19;;;10.24;100.00
4858;BME280;58975;51.978;8.472;2023-03-21T11:15:51;100224.91;;;9.72;100.00
4858;BME280;58975;51.978;8.472;2023-03-21T11:20:53;100225.88;;;9.60;100.00
4858;BME280;58975;51.978;8.472;2023-03-21T11:25:50;100217.03;;;9.70;100.00
4858;BME280;58975;51.978;8.472;2023-03-21T11:30:52;100216.53;;;9.87;100.00
4858;BME280;58975;51.978;8.472;2023-03-21T11:36:43;100201.75;;;10.06;100.00
4858;BME280;58975;51.978;8.472;2023-03-21T11:46:27;100194.22;;;10.11;100.00
4858;BME280;58975;51.978;8.472;2023-03-21T11:57:23;100187.75;;;9.81;100.00
4858;BME280;58975;51.978;8.472;2023-03-21T12:12:57;100171.94;;;9.69;100.00
4858;BME280;58975;51.978;8.472;2023-03-21T12:39:27;100135.13;;;10.07;100.00
4858;BME280;58975;51.978;8.472;2023-03-21T12:44:26;100128.28;;;10.25;100.00
4858;BME280;58975;51.978;8.472;2023-03-21T12:49:37;100130.56;;;10.30;100.00
4858;BME280;58975;51.978;8.472;2023-03-21T12:54:49;100120.41;;;10.24;100.00
4858;BME280;58975;51.978;8.472;2023-03-21T13:00:17;100119.47;;;10.46;100.00
4858;BME280;58975;51.978;8.472;2023-03-21T13:10:35;100112.41;;;10.35;100.00
4858;BME280;58975;51.978;8.472;2023-03-21T13:15:42;100107.31;;;10.32;100.00
4858;BME280;58975;51.978;8.472;2023-03-21T13:20:47;100100.47;;;10.50;100.00
4858;BME280;58975;51.978;8.472;2023-03-21T13:25:47;100088.31;;;10.87;100.00
4858;BME280;58975;51.978;8.472;2023-03-21T13:30:45;100086.28;;;11.01;100.00
4858;BME280;58975;51.978;8.472;2023-03-21T13:35:44;100078.56;;;10.98;100.00
4858;BME280;58975;51.978;8.472;2023-03-21T13:40:47;100067.19;;;10.96;100.00
4858;BME280;58975;51.978;8.472;2023-03-21T13:45:51;100059.75;;;10.99;100.00
4858;BME280;58975;51.978;8.472;2023-03-21T13:50:52;100059.53;;;11.12;100.00
4858;BME280;58975;51.978;8.472;2023-03-21T13:56:17;100052.75;;;10.98;100.00
4858;BME280;58975;51.978;8.472;2023-03-21T14:06:12;100018.91;;;11.38;100.00
4858;BME280;58975;51.978;8.472;2023-03-21T14:11:16;100012.22;;;11.44;100.00
4858;BME280;58975;51.978;8.472;2023-03-21T14:16:16;100007.56;;;11.65;100.00
4858;BME280;58975;51.978;8.472;2023-03-21T14:21:19;99998.75;;;11.55;100.00
4858;BME280;58975;51.978;8.472;2023-03-21T14:26:19;99991.16;;;11.51;100.00
4858;BME280;58975;51.978;8.472;2023-03-21T14:31:17;99991.13;;;11.41;100.00
4858;BME280;58975;51.978;8.472;2023-03-21T14:36:22;99990.84;;;11.34;100.00
4858;BME280;58975;51.978;8.472;2023-03-21T14:41:25;99992.25;;;11.29;100.00
4858;BME280;58975;51.978;8.472;2023-03-21T14:46:21;99994.78;;;11.21;100.00
4858;BME280;58975;51.978;8.472;2023-03-21T14:51:18;99993.88;;;11.11;100.00
4858;BME280;58975;51.978;8.472;2023-03-21T14:56:21;99974.97;;;11.14;100.00
4858;BME280;58975;51.978;8.472;2023-03-21T15:01:28;99971.97;;;10.88;100.00
4858;BME280;58975;51.978;8.472;2023-03-21T15:06:26;99942.13;;;11.04;100.00
4858;BME280;58975;51.978;8.472;2023-03-21T15:11:38;99956.28;;;11.14;100.00
4858;BME280;58975;51.978;8.472;2023-03-21T15:16:35;99930.22;;;11.08;100.00
4858;BME280;58975;51.978;8.472;2023-03-21T15:21:37;99950.13;;;11.04;100.00
4858;BME280;58975;51.978;8.472;2023-03-21T15:26:37;99950.53;;;10.89;100.00
4858;BME280;58975;51.978;8.472;2023-03-21T15:31:35;99939.44;;;10.84;100.00
4858;BME280;58975;51.978;8.472;2023-03-21T15:36:40;99925.41;;;10.92;100.00
4858;BME280;58975;51.978;8.472;2023-03-21T15:41:38;99935.09;;;10.93;100.00
4858;BME280;58975;51.978;8.472;2023-03-21T15:46:46;99950.31;;;10.72;100.00
4858;BME280;58975;51.978;8.472;2023-03-21T15:52:16;99945.13;;;10.40;100.00
4858;BME280;58975;51.978;8.472;2023-03-21T15:57:20;99936.00;;;10.33;100.00
4858;BME280;58975;51.978;8.472;2023-03-21T16:02:22;99937.81;;;10.32;100.00
4858;BME280;58975;51.978;8.472;2023-03-21T16:07:22;99931.66;;;10.32;100.00
4858;BME280;58975;51.978;8.472;2023-03-21T16:12:19;99921.81;;;10.23;100.00
4858;BME280;58975;51.978;8.472;2023-03-21T16:22:25;99918.25;;;10.43;100.00
4858;BME280;58975;51.978;8.472;2023-03-21T16:27:23;99918.59;;;10.59;100.00
4858;BME280;58975;51.978;8.472;2023-03-21T16:32:19;99930.06;;;10.50;100.00
4858;BME280;58975;51.978;8.472;2023-03-21T16:37:16;99918.41;;;10.81;100.00
4858;BME280;58975;51.978;8.472;2023-03-21T16:42:12;99920.84;;;11.80;100.00
4858;BME280;58975;51.978;8.472;2023-03-21T16:47:17;99903.53;;;15.19;100.00
4858;BME280;58975;51.978;8.472;2023-03-21T16:52:14;99904.88;;;17.82;93.72
4858;BME280;58975;51.978;8.472;2023-03-21T16:57:20;99926.25;;;14.31;100.00
4858;BME280;58975;51.978;8.472;2023-03-21T17:02:18;99922.97;;;12.23;100.00
4858;BME280;58975;51.978;8.472;2023-03-21T17:07:14;99925.31;;;11.22;100.00
4858;BME280;58975;51.978;8.472;2023-03-21T17:12:13;99932.38;;;11.52;100.00
4858;BME280;58975;51.978;8.472;2023-03-21T17:17:11;99925.97;;;10.96;100.00
4858;BME280;58975;51.978;8.472;2023-03-21T17:22:08;99931.38;;;10.75;100.00
4858;BME280;58975;51.978;8.472;2023-03-21T17:27:12;99928.66;;;10.56;100.00
4858;BME280;58975;51.978;8.472;2023-03-21T17:32:09;99922.25;;;10.28;100.00
4858;BME280;58975;51.978;8.472;2023-03-21T17:37:08;99922.38;;;10.06;100.00
4858;BME280;58975;51.978;8.472;2023-03-21T17:42:10;99923.56;;;9.92;100.00
4858;BME280;58975;51.978;8.472;2023-03-21T17:47:11;99923.06;;;9.77;100.00
4858;BME280;58975;51.978;8.472;2023-03-21T17:52:07;99936.69;;;9.63;100.00
4858;BME280;58975;51.978;8.472;2023-03-21T17:57:04;99944.38;;;9.66;100.00
4858;BME280;58975;51.978;8.472;2023-03-21T18:02:00;99949.75;;;9.55;100.00
4858;BME280;58975;51.978;8.472;2023-03-21T18:06:57;99959.44;;;9.56;100.00
4858;BME280;58975;51.978;8.472;2023-03-21T18:11:56;99957.22;;;9.61;100.00
4858;BME280;58975;51.978;8.472;2023-03-21T18:16:52;99947.56;;;9.60;100.00
4858;BME280;58975;51.978;8.472;2023-03-21T18:21:49;99949.25;;;9.61;100.00
4858;BME280;58975;51.978;8.472;2023-03-21T18:26:46;99952.38;;;9.66;100.00
4858;BME280;58975;51.978;8.472;2023-03-21T18:31:43;99949.13;;;9.63;100.00
4858;BME280;58975;51.978;8.472;2023-03-21T18:36:57;99945.81;;;9.70;100.00
4858;BME280;58975;51.978;8.472;2023-03-21T18:41:54;99951.03;;;9.61;100.00
4858;BME280;58975;51.978;8.472;2023-03-21T18:46:56;99952.75;;;9.62;100.00
4858;BME280;58975;51.978;8.472;2023-03-21T18:51:52;99952.41;;;9.55;100.00
4858;BME280;58975;51.978;8.472;2023-03-21T18:56:49;99953.13;;;9.57;100.00
4858;BME280;58975;51.978;8.472;2023-03-21T19:02:06;99951.66;;;9.64;100.00
4858;BME280;58975;51.978;8.472;2023-03-21T19:07:03;99945.81;;;9.70;100.00
4858;BME280;58975;51.978;8.472;2023-03-21T19:12:00;99947.25;;;9.74;100.00
4858;BME280;58975;51.978;8.472;2023-03-21T19:16:57;99939.19;;;9.65;100.00
4858;BME280;58975;51.978;8.472;2023-03-21T19:22:14;99932.78;;;9.67;100.00
4858;BME280;58975;51.978;8.472;2023-03-21T19:27:11;99923.69;;;9.70;100.00
4858;BME280;58975;51.978;8.472;2023-03-21T19:32:08;99932.06;;;9.65;100.00
4858;BME280;58975;51.978;8.472;2023-03-21T19:37:04;99929.47;;;9.54;100.00
4858;BME280;58975;51.978;8.472;2023-03-21T19:42:01;99927.72;;;9.43;100.00
4858;BME280;58975;51.978;8.472;2023-03-21T19:47:12;99915.31;;;9.33;100.00
4858;BME280;58975;51.978;8.472;2023-03-21T19:52:08;99927.28;;;9.27;100.00
4858;BME280;58975;51.978;8.472;2023-03-21T19:57:05;99922.81;;;9.28;100.00
4858;BME280;58975;51.978;8.472;2023-03-21T20:02:02;99915.47;;;9.20;100.00
4858;BME280;58975;51.978;8.472;2023-03-21T20:07:19;99915.41;;;8.99;100.00
4858;BME280;58975;51.978;8.472;2023-03-21T20:12:15;99927.50;;;8.92;100.00
4858;BME280;58975;51.978;8.472;2023-03-21T20:17:12;99930.28;;;8.91;100.00
4858;BME280;58975;51.978;8.472;2023-03-21T20:22:08;99921.88;;;8.75;100.00
4858;BME280;58975;51.978;8.472;2023-03-21T20:27:22;99923.78;;;8.84;100.00
4858;BME280;58975;51.978;8.472;2023-03-21T20:32:20;99910.84;;;9.01;100.00
4858;BME280;58975;51.978;8.472;2023-03-21T20:37:16;99912.28;;;8.94;100.00
4858;BME280;58975;51.978;8.472;2023-03-21T20:42:13;99914.50;;;8.78;100.00
4858;BME280;58975;51.978;8.472;2023-03-21T20:47:09;99927.19;;;8.64;100.00
4858;BME280;58975;51.978;8.472;2023-03-21T20:52:06;99915.00;;;8.72;100.00
4858;BME280;58975;51.978;8.472;2023-03-21T20:57:24;99919.97;;;8.66;100.00
4858;BME280;58975;51.978;8.472;2023-03-21T21:02:23;99901.84;;;8.82;100.00
4858;BME280;58975;51.978;8.472;2023-03-21T21:07:21;99910.28;;;8.76;100.00
4858;BME280;58975;51.978;8.472;2023-03-21T21:12:17;99910.50;;;8.84;100.00
4858;BME280;58975;51.978;8.472;2023-03-21T21:17:14;99895.69;;;8.81;100.00
4858;BME280;58975;51.978;8.472;2023-03-21T21:22:31;99896.38;;;8.83;100.00
4858;BME280;58975;51.978;8.472;2023-03-21T21:27:27;99890.97;;;8.85;100.00
4858;BME280;58975;51.978;8.472;2023-03-21T21:32:24;99886.94;;;9.01;100.00
4858;BME280;58975;51.978;8.472;2023-03-21T21:37:21;99872.72;;;8.91;100.00
4858;BME280;58975;51.978;8.472;2023-03-21T21:42:17;99868.66;;;8.76;100.00
4858;BME280;58975;51.978;8.472;2023-03-21T21:47:14;99867.94;;;8.63;100.00
4858;BME280;58975;51.978;8.472;2023-03-21T21:52:10;99877.63;;;8.53;100.00
4858;BME280;58975;51.978;8.472;2023-03-21T21:57:08;99878.75;;;8.50;100.00
4858;BME280;58975;51.978;8.472;2023-03-21T22:02:05;99872.91;;;8.57;100.00
4858;BME280;58975;51.978;8.472;2023-03-21T22:07:01;99886.31;;;8.66;100.00
4858;BME280;58975;51.978;8.472;2023-03-21T22:12:01;99862.41;;;8.66;100.00
4858;BME280;58975;51.978;8.472;2023-03-21T22:16:57;99871.28;;;8.87;100.00
4858;BME280;58975;51.978;8.472;2023-03-21T22:21:55;99862.59;;;8.85;100.00
4858;BME280;58975;51.978;8.472;2023-03-21T22:26:53;99856.34;;;8.75;100.00
4858;BME280;58975;51.978;8.472;2023-03-21T22:31:55;99856.25;;;8.66;100.00
4858;BME280;58975;51.978;8.472;2023-03-21T22:36:52;99859.28;;;8.61;100.00
4858;BME280;58975;51.978;8.472;2023-03-21T22:41:52;99856.03;;;8.58;100.00
4858;BME280;58975;51.978;8.472;2023-03-21T22:46:49;99858.19;;;8.64;100.00
4858;BME280;58975;51.978;8.472;2023-03-21T22:51:45;99855.16;;;8.68;100.00
4858;BME280;58975;51.978;8.472;2023-03-21T22:56:42;99855.91;;;8.70;100.00
4858;BME280;58975;51.978;8.472;2023-03-21T23:01:38;99845.97;;;8.72;100.00
4858;BME280;58975;51.978;8.472;2023-03-21T23:06:35;99847.94;;;8.70;100.00
4858;BME280;58975;51.978;8.472;2023-03-21T23:11:31;99850.09;;;8.65;100.00
4858;BME280;58975;51.978;8.472;2023-03-21T23:16:28;99844.81;;;8.65;100.00
4858;BME280;58975;51.978;8.472;2023-03-21T23:21:24;99835.13;;;8.64;100.00
4858;BME280;58975;51.978;8.472;2023-03-21T23:26:22;99837.09;;;8.62;100.00
4858;BME280;58975;51.978;8.472;2023-03-21T23:31:21;99822.59;;;8.55;100.00
4858;BME280;58975;51.978;8.472;2023-03-21T23:36:19;99823.56;;;8.65;100.00
4858;BME280;58975;51.978;8.472;2023-03-21T23:41:18;99822.81;;;8.63;100.00
4858;BME280;58975;51.978;8.472;2023-03-21T23:46:15;99825.00;;;8.69;100.00
4858;BME280;58975;51.978;8.472;2023-03-21T23:51:14;99815.84;;;8.62;100.00
4858;BME280;58975;51.978;8.472;2023-03-21T23:56:16;99807.38;;;8.68;100.00
